createdAt,value
2023-01-12T00:00:09.031Z,1.20
2023-01-12T00:05:15.405Z,1.20
2023-01-12T00:10:17.682Z,1.50
2023-01-12T00:15:39.763Z,1.73
2023-01-12T00:20:47.951Z,1.30
2023-01-12T00:25:54.439Z,1.47
2023-01-12T00:31:01.067Z,1.23
2023-01-12T00:36:08.746Z,1.20
2023-01-12T00:41:32.920Z,1.33
2023-01-12T00:46:35.160Z,1.17
2023-01-12T00:51:37.256Z,1.20
2023-01-12T00:56:39.675Z,0.83
2023-01-12T01:01:41.896Z,1.40
2023-01-12T01:06:44.005Z,1.30
2023-01-12T01:11:46.137Z,1.30
2023-01-12T01:16:48.451Z,1.77
2023-01-12T01:21:50.761Z,1.10
2023-01-12T01:26:53.048Z,1.40
2023-01-12T01:31:55.668Z,1.07
2023-01-12T01:36:59.141Z,1.20
2023-01-12T01:42:01.294Z,1.33
2023-01-12T01:47:08.541Z,1.37
2023-01-12T01:52:14.738Z,1.03
2023-01-12T01:57:17.047Z,1.87
2023-01-12T02:02:19.623Z,1.40
2023-01-12T02:07:21.939Z,1.40
2023-01-12T02:12:42.567Z,1.53
2023-01-12T02:18:12.785Z,2.03
2023-01-12T02:23:42.372Z,1.60
2023-01-12T02:29:13.660Z,1.70
2023-01-12T02:34:24.545Z,1.97
2023-01-12T02:39:30.652Z,1.70
2023-01-12T02:44:40.619Z,2.13
2023-01-12T02:49:45.400Z,1.90
2023-01-12T02:54:49.077Z,1.90
2023-01-12T02:59:52.486Z,2.20
2023-01-12T03:04:55.310Z,2.40
2023-01-12T03:10:13.612Z,2.37
2023-01-12T03:15:17.589Z,1.77
2023-01-12T03:20:28.530Z,1.90
2023-01-12T03:25:31.313Z,1.53
2023-01-12T03:30:37.764Z,1.90
2023-01-12T03:35:46.112Z,1.57
2023-01-12T03:40:56.193Z,1.50
2023-01-12T03:46:05.080Z,1.67
2023-01-12T03:51:14.661Z,2.13
2023-01-12T03:56:18.725Z,1.63
2023-01-12T04:01:20.880Z,1.50
2023-01-12T04:06:23.484Z,1.37
2023-01-12T04:11:44.325Z,1.63
2023-01-12T04:16:47.042Z,1.20
2023-01-12T04:22:07.870Z,1.40
2023-01-12T04:27:10.179Z,1.53
2023-01-12T04:32:12.607Z,1.00
2023-01-12T04:37:15.054Z,0.67
2023-01-12T04:42:35.867Z,1.17
2023-01-12T04:47:38.118Z,0.93
2023-01-12T04:52:40.227Z,0.87
2023-01-12T04:57:42.660Z,1.20
2023-01-12T05:02:44.915Z,0.80
2023-01-12T05:08:05.550Z,1.10
2023-01-12T05:13:07.660Z,0.90
2023-01-12T05:18:09.789Z,0.80
2023-01-12T05:23:12.025Z,0.60
2023-01-12T05:28:14.332Z,0.40
2023-01-12T05:33:17.854Z,0.53
2023-01-12T05:38:20.330Z,0.50
2023-01-12T05:43:41.083Z,0.60
2023-01-12T05:48:43.138Z,0.60
2023-01-12T05:53:45.510Z,0.50
2023-01-12T05:58:52.605Z,0.30
2023-01-12T06:04:00.279Z,0.60
2023-01-12T06:09:02.587Z,0.40
2023-01-12T06:14:05.648Z,0.30
2023-01-12T06:19:09.310Z,0.40
2023-01-12T06:24:12.229Z,0.30
2023-01-12T06:29:14.345Z,0.30
2023-01-12T06:34:16.698Z,0.20
2023-01-12T06:39:18.800Z,0.50
2023-01-12T06:44:20.953Z,0.20
2023-01-12T06:49:23.056Z,0.40
2023-01-12T06:54:25.311Z,0.30
2023-01-12T06:59:27.325Z,0.30
2023-01-12T07:04:29.413Z,0.10
2023-01-12T07:09:31.465Z,0.20
2023-01-12T07:14:33.795Z,0.13
2023-01-12T07:19:35.950Z,0.20
2023-01-12T07:24:38.158Z,0.17
2023-01-12T07:29:40.373Z,0.40
2023-01-12T07:34:42.448Z,0.13
2023-01-12T07:39:44.497Z,0.30
2023-01-12T07:44:46.578Z,0.33
2023-01-12T07:49:48.817Z,0.33
2023-01-12T07:54:50.838Z,0.30
2023-01-12T07:59:52.959Z,0.40
2023-01-12T08:04:55.209Z,0.70
2023-01-12T08:09:57.320Z,1.13
2023-01-12T08:15:00.593Z,0.90
2023-01-12T08:20:09.120Z,0.70
2023-01-12T08:25:17.897Z,0.73
2023-01-12T08:30:22.039Z,0.43
2023-01-12T08:35:25.411Z,0.60
2023-01-12T08:40:47.425Z,1.23
2023-01-12T08:45:49.703Z,0.63
2023-01-12T08:50:51.926Z,0.40
2023-01-12T08:55:54.300Z,0.60
2023-01-12T09:00:56.668Z,0.70
2023-01-12T09:05:58.942Z,0.37
2023-01-12T09:11:05.405Z,0.67
2023-01-12T09:16:13.608Z,0.40
2023-01-12T09:21:21.242Z,0.37
2023-01-12T09:26:27.017Z,0.40
2023-01-12T09:31:30.754Z,0.47
2023-01-12T09:36:35.038Z,0.30
2023-01-12T09:42:06.604Z,0.23
2023-01-12T09:47:15.663Z,0.20
2023-01-12T09:52:21.272Z,0.30
2023-01-12T09:57:39.192Z,0.20
2023-01-12T10:02:52.957Z,0.47
2023-01-12T10:07:55.776Z,0.50
2023-01-12T10:13:01.055Z,0.20
2023-01-12T10:18:27.178Z,0.30
2023-01-12T10:23:29.299Z,0.20
2023-01-12T10:28:33.674Z,0.30
2023-01-12T10:33:36.291Z,0.40
2023-01-12T10:38:40.481Z,0.30
2023-01-12T10:43:44.246Z,0.47
2023-01-12T10:48:48.155Z,0.20
2023-01-12T10:53:57.561Z,0.40
2023-01-12T10:59:01.934Z,0.20
2023-01-12T11:04:05.722Z,0.20
2023-01-12T11:09:18.553Z,0.17
2023-01-12T11:14:26.902Z,0.27
2023-01-12T11:19:38.648Z,0.27
2023-01-12T11:24:43.384Z,0.30
2023-01-12T11:29:59.889Z,0.30
2023-01-12T11:35:26.443Z,0.43
2023-01-12T11:40:31.783Z,0.30
2023-01-12T11:45:41.323Z,0.83
2023-01-12T11:50:44.845Z,0.23
2023-01-12T11:56:06.233Z,0.30
2023-01-12T12:01:53.500Z,0.30
2023-01-12T12:07:17.536Z,0.30
2023-01-12T12:12:46.745Z,0.33
2023-01-12T12:17:58.821Z,0.30
2023-01-12T12:23:31.744Z,0.30
2023-01-12T12:28:52.761Z,0.57
2023-01-12T12:34:23.294Z,0.23
2023-01-12T12:39:28.364Z,0.30
2023-01-12T12:45:06.601Z,0.30
2023-01-12T12:50:20.547Z,0.23
2023-01-12T12:55:22.625Z,0.53
2023-01-12T13:00:30.529Z,0.20
2023-01-12T13:05:47.624Z,0.33
2023-01-12T13:10:57.699Z,0.20
2023-01-12T13:16:43.414Z,0.30
2023-01-12T13:21:58.186Z,0.40
2023-01-12T13:27:01.784Z,0.20
2023-01-12T13:32:31.441Z,0.10
2023-01-12T13:37:57.678Z,0.10
2023-01-12T13:43:17.064Z,0.17
2023-01-12T13:48:19.470Z,0.20
2023-01-12T13:53:28.711Z,0.20
2023-01-12T13:58:40.441Z,0.20
2023-01-12T14:04:05.071Z,0.30
2023-01-12T14:09:10.620Z,0.20
2023-01-12T14:14:59.241Z,0.20
2023-01-12T14:20:01.540Z,0.10
2023-01-12T14:25:17.833Z,0.30
2023-01-12T14:30:21.339Z,0.20
2023-01-12T14:35:25.138Z,0.20
2023-01-12T14:40:31.933Z,0.30
2023-01-12T14:45:52.587Z,0.80
2023-01-12T14:51:11.024Z,0.20
2023-01-12T14:56:19.123Z,0.30
2023-01-12T15:01:32.966Z,0.20
2023-01-12T15:06:39.117Z,0.40
2023-01-12T15:11:41.172Z,0.20
2023-01-12T15:17:01.855Z,0.30
2023-01-12T15:22:26.987Z,0.20
2023-01-12T15:27:29.528Z,0.50
2023-01-12T15:32:48.501Z,0.40
2023-01-12T15:37:53.388Z,0.40
2023-01-12T15:42:55.541Z,0.50
2023-01-12T15:47:57.685Z,0.60
2023-01-12T15:53:00.899Z,0.47
2023-01-12T15:58:03.051Z,0.60
2023-01-12T16:03:06.117Z,0.40
2023-01-12T16:08:08.241Z,0.40
2023-01-12T16:13:11.903Z,0.50
2023-01-12T16:18:16.523Z,0.53
2023-01-12T16:23:18.616Z,1.20
2023-01-12T16:28:20.881Z,0.30
2023-01-12T16:33:23.230Z,0.60
2023-01-12T16:38:25.372Z,0.30
2023-01-12T16:43:29.711Z,0.50
2023-01-12T16:48:33.582Z,0.40
2023-01-12T16:53:36.001Z,0.50
2023-01-12T16:58:38.531Z,0.70
2023-01-12T17:03:43.875Z,0.67
2023-01-12T17:08:46.227Z,0.77
2023-01-12T17:13:54.559Z,0.80
2023-01-12T17:18:56.903Z,0.53
2023-01-12T17:23:59.422Z,0.83
2023-01-12T17:29:01.698Z,0.80
2023-01-12T17:34:04.971Z,0.50
2023-01-12T17:39:07.710Z,0.57
2023-01-12T17:44:10.064Z,0.60
2023-01-12T17:49:13.565Z,0.67
2023-01-12T17:54:16.819Z,0.43
2023-01-12T17:59:20.958Z,0.50
2023-01-12T18:04:23.850Z,0.40
2023-01-12T18:09:27.852Z,0.67
2023-01-12T18:14:30.760Z,0.43
2023-01-12T18:19:33.355Z,0.40
2023-01-12T18:24:35.997Z,0.70
2023-01-12T18:29:38.462Z,0.83
2023-01-12T18:34:49.631Z,0.67
2023-01-12T18:39:51.980Z,0.60
2023-01-12T18:44:54.144Z,0.60
2023-01-12T18:49:58.427Z,0.80
2023-01-12T18:55:01.002Z,0.67
2023-01-12T19:00:14.776Z,0.50
2023-01-12T19:05:31.173Z,0.60
2023-01-12T19:10:34.094Z,0.60
2023-01-12T19:15:55.915Z,0.30
2023-01-12T19:21:16.546Z,0.30
2023-01-12T19:26:38.296Z,0.37
2023-01-12T19:31:40.464Z,0.37
2023-01-12T19:36:42.750Z,0.50
2023-01-12T19:42:03.487Z,0.30
2023-01-12T19:47:05.566Z,0.50
2023-01-12T19:52:07.615Z,0.53
2023-01-12T19:57:09.798Z,0.43
2023-01-12T20:02:12.694Z,0.40
2023-01-12T20:07:15.121Z,0.50
2023-01-12T20:12:17.366Z,0.40
2023-01-12T20:17:19.582Z,1.07
2023-01-12T20:22:21.681Z,0.70
2023-01-12T20:27:24.150Z,0.50
2023-01-12T20:32:31.459Z,0.47
2023-01-12T20:37:34.132Z,0.50
2023-01-12T20:42:36.747Z,0.43
2023-01-12T20:47:39.498Z,0.77
2023-01-12T20:52:41.819Z,0.60
2023-01-12T20:57:43.997Z,0.53
2023-01-12T21:02:46.440Z,0.30
2023-01-12T21:07:52.058Z,0.20
2023-01-12T21:12:56.363Z,0.50
2023-01-12T21:17:58.635Z,0.40
2023-01-12T21:23:01.391Z,0.20
2023-01-12T21:28:04.124Z,0.20
2023-01-12T21:33:06.552Z,0.10
2023-01-12T21:38:09.274Z,0.20
2023-01-12T21:43:13.151Z,0.10
2023-01-12T21:48:17.355Z,0.37
2023-01-12T21:53:21.765Z,0.20
2023-01-12T21:58:24.843Z,0.10
2023-01-12T22:03:28.408Z,0.10
2023-01-12T22:08:30.568Z,0.10
2023-01-12T22:13:33.503Z,0.20
2023-01-12T22:18:36.361Z,0.20
2023-01-12T22:23:39.961Z,0.37
2023-01-12T22:28:44.336Z,0.20
2023-01-12T22:33:47.952Z,0.30
2023-01-12T22:38:50.202Z,0.33
2023-01-12T22:43:52.880Z,0.20
2023-01-12T22:48:56.555Z,0.30
2023-01-12T22:53:59.564Z,0.30
2023-01-12T22:59:02.095Z,0.30
2023-01-12T23:04:04.795Z,0.40
2023-01-12T23:09:07.584Z,0.30
2023-01-12T23:14:09.863Z,0.27
2023-01-12T23:19:12.370Z,0.10
2023-01-12T23:24:14.847Z,0.23
2023-01-12T23:29:17.616Z,0.20
2023-01-12T23:34:20.043Z,0.20
2023-01-12T23:39:22.312Z,0.20
2023-01-12T23:44:25.555Z,0.10
2023-01-12T23:49:28.035Z,0.20
2023-01-12T23:54:30.637Z,0.20
2023-01-12T23:59:33.151Z,0.10
